Time;durP1;ratioP1;P1;durP2;ratioP2;P2;SDS_P1;SDS_P2;PMS_P1;PMS_P2;Temp;Humidity;BMP_temperature;BMP_pressure;BME280_temperature;BME280_humidity;BME280_pressure;Samples;Min_cycle;Max_cycle;Signal;HPM_P1;HPM_P2
2021/03/26 00:00:17;;;;;;;22.93;15.50;;;7.30;99.90;;;;;;5051989;28;20237;-64
2021/03/26 00:02:42;;;;;;;29.47;16.30;;;7.20;99.90;;;;;;5053697;28;20206;-64
2021/03/26 00:05:13;;;;;;;26.27;15.63;;;7.20;99.90;;;;;;5034912;28;20274;-64
2021/03/26 00:07:38;;;;;;;28.07;15.93;;;7.10;99.90;;;;;;5048863;28;20179;-64
2021/03/26 00:10:09;;;;;;;29.63;16.63;;;7.00;99.90;;;;;;5053352;28;20239;-64
2021/03/26 00:12:35;;;;;;;32.00;16.90;;;7.00;99.90;;;;;;5039487;28;20553;-64
2021/03/26 00:15:00;;;;;;;30.40;17.07;;;7.00;99.90;;;;;;5033837;28;20175;-64
2021/03/26 00:17:26;;;;;;;31.90;18.47;;;6.90;99.90;;;;;;5045971;28;20183;-64
2021/03/26 00:19:51;;;;;;;33.17;17.93;;;6.90;99.90;;;;;;5053236;28;20280;-64
2021/03/26 00:22:17;;;;;;;35.63;18.83;;;6.90;99.90;;;;;;5042972;28;20262;-64
2021/03/26 00:24:43;;;;;;;32.63;19.80;;;6.90;99.90;;;;;;5033702;28;20167;-64
2021/03/26 00:27:08;;;;;;;32.97;19.47;;;6.80;99.90;;;;;;5042269;28;20179;-64
2021/03/26 00:29:34;;;;;;;37.23;20.90;;;6.90;99.90;;;;;;5053483;28;20219;-64
2021/03/26 00:31:59;;;;;;;36.10;19.63;;;6.90;99.90;;;;;;5045752;28;20190;-64
2021/03/26 00:34:25;;;;;;;33.80;20.60;;;6.90;99.90;;;;;;5037037;28;20217;-64
2021/03/26 00:36:51;;;;;;;33.37;19.80;;;7.00;99.90;;;;;;5053311;28;20166;-64
2021/03/26 00:39:17;;;;;;;35.50;20.93;;;7.00;99.90;;;;;;5051094;28;20532;-64
2021/03/26 00:41:42;;;;;;;33.13;19.73;;;7.10;99.90;;;;;;5033036;28;20543;-64
2021/03/26 00:44:08;;;;;;;33.90;20.57;;;7.10;99.90;;;;;;5033432;28;20168;-64
2021/03/26 00:46:37;;;;;;;40.07;20.83;;;7.10;99.90;;;;;;5053821;28;20254;-64
2021/03/26 00:49:03;;;;;;;34.07;21.20;;;7.20;99.90;;;;;;5051962;28;20699;-64
2021/03/26 00:51:28;;;;;;;35.20;19.83;;;7.20;99.90;;;;;;5052573;28;20252;-64
2021/03/26 00:53:54;;;;;;;38.43;20.77;;;7.30;99.90;;;;;;5052831;28;20171;-64
2021/03/26 00:56:20;;;;;;;34.47;21.90;;;7.30;99.90;;;;;;5033481;28;20215;-64
2021/03/26 00:58:45;;;;;;;31.40;20.00;;;7.30;99.90;;;;;;5033155;28;20185;-64
2021/03/26 01:01:11;;;;;;;33.83;21.60;;;7.40;99.90;;;;;;5050233;28;20553;-64
2021/03/26 01:03:36;;;;;;;31.87;20.40;;;7.40;99.90;;;;;;5040402;28;20214;-64
2021/03/26 01:06:05;;;;;;;26.57;18.60;;;7.50;99.90;;;;;;5032743;28;20232;-63
2021/03/26 01:08:31;;;;;;;30.90;18.43;;;7.40;99.90;;;;;;5043871;28;20246;-64
2021/03/26 01:11:06;;;;;;;31.73;19.70;;;7.40;99.90;;;;;;5054179;28;20186;-64
2021/03/26 01:13:32;;;;;;;42.70;22.13;;;7.40;99.90;;;;;;5041460;28;20178;-64
2021/03/26 01:15:57;;;;;;;35.77;21.83;;;7.30;99.90;;;;;;5032963;28;20257;-64
2021/03/26 01:18:32;;;;;;;34.30;21.57;;;7.20;99.90;;;;;;5041573;28;20186;-64
2021/03/26 01:20:59;;;;;;;32.87;19.67;;;7.20;99.90;;;;;;5052172;28;20679;-64
2021/03/26 01:23:27;;;;;;;33.77;19.80;;;7.10;99.90;;;;;;5043641;28;20607;-64
2021/03/26 01:25:53;;;;;;;34.80;21.00;;;7.00;99.90;;;;;;5032422;28;20767;-64
2021/03/26 01:28:21;;;;;;;35.80;21.00;;;7.00;99.90;;;;;;5039682;28;20231;-64
2021/03/26 01:30:48;;;;;;;40.67;21.50;;;6.90;99.90;;;;;;5047566;28;20198;-64
2021/03/26 01:33:14;;;;;;;33.23;19.90;;;6.80;99.90;;;;;;5032465;28;20172;-64
2021/03/26 01:35:40;;;;;;;38.90;22.07;;;6.70;99.90;;;;;;5034741;28;20187;-64
2021/03/26 01:38:07;;;;;;;37.97;22.57;;;6.60;99.90;;;;;;5051209;28;20186;-64
2021/03/26 01:40:40;;;;;;;40.57;21.77;;;6.60;99.90;;;;;;5050772;28;20551;-64
2021/03/26 01:43:22;;;;;;;53.13;26.77;;;6.50;99.90;;;;;;5032207;28;20211;-64
2021/03/26 01:45:49;;;;;;;58.33;30.57;;;6.50;99.90;;;;;;5034452;28;20216;-64
2021/03/26 01:48:31;;;;;;;52.87;27.90;;;6.50;99.90;;;;;;5052027;28;20175;-64
2021/03/26 01:50:58;;;;;;;51.90;26.73;;;6.50;99.90;;;;;;5048221;28;20614;-64
2021/03/26 01:53:25;;;;;;;49.87;27.07;;;6.40;99.90;;;;;;5032075;28;20179;-64
2021/03/26 01:55:51;;;;;;;56.97;30.83;;;6.40;99.90;;;;;;5033458;28;20184;-64
2021/03/26 01:58:24;;;;;;;58.93;30.80;;;6.40;99.90;;;;;;5052111;28;20187;-64
2021/03/26 02:01:16;;;;;;;62.67;30.73;;;6.50;99.90;;;;;;5031712;28;20298;-64
2021/03/26 02:03:44;;;;;;;58.53;31.83;;;6.40;99.90;;;;;;5030768;28;20584;-64
2021/03/26 02:06:22;;;;;;;61.87;31.90;;;6.40;99.90;;;;;;5051608;28;20224;-64
2021/03/26 02:08:49;;;;;;;58.57;32.70;;;6.40;99.90;;;;;;5050366;28;20529;-64
2021/03/26 02:11:32;;;;;;;67.27;34.67;;;6.40;99.90;;;;;;5031501;28;20184;-64
2021/03/26 02:14:01;;;;;;;61.83;34.83;;;6.40;99.90;;;;;;5033760;28;20183;-64
2021/03/26 02:16:27;;;;;;;63.27;35.17;;;6.40;99.90;;;;;;5051610;28;20170;-64
2021/03/26 02:18:53;;;;;;;70.73;34.07;;;6.50;99.90;;;;;;5050396;28;20253;-64
2021/03/26 02:21:26;;;;;;;69.03;35.67;;;6.50;99.90;;;;;;5043360;28;20199;-64
2021/03/26 02:23:55;;;;;;;57.60;34.47;;;6.50;99.90;;;;;;5051036;28;20198;-64
2021/03/26 02:26:43;;;;;;;67.47;34.83;;;6.50;99.90;;;;;;5011861;28;20176;-64
2021/03/26 02:29:27;;;;;;;66.13;32.27;;;6.50;99.90;;;;;;5012041;28;20200;-64
2021/03/26 02:32:04;;;;;;;60.87;31.67;;;6.50;99.90;;;;;;5020850;28;20182;-64
2021/03/26 02:34:31;;;;;;;65.50;33.83;;;6.50;99.90;;;;;;5051361;28;20202;-64
2021/03/26 02:37:06;;;;;;;67.57;32.80;;;6.40;99.90;;;;;;5044645;28;20174;-64
2021/03/26 02:39:39;;;;;;;55.90;30.53;;;6.40;99.90;;;;;;5031409;28;20183;-64
2021/03/26 02:42:16;;;;;;;65.30;34.20;;;6.30;99.90;;;;;;5037939;28;20675;-64
2021/03/26 02:44:46;;;;;;;59.57;31.70;;;6.20;99.90;;;;;;5050201;28;20674;-64
2021/03/26 02:47:20;;;;;;;67.27;34.23;;;6.20;99.90;;;;;;5043638;28;20168;-64
2021/03/26 02:50:04;;;;;;;64.60;33.70;;;6.10;99.90;;;;;;5036942;28;20598;-64
2021/03/26 02:52:46;;;;;;;69.20;35.97;;;6.00;99.90;;;;;;5051490;28;20216;-62
2021/03/26 02:55:27;;;;;;;66.90;34.40;;;6.10;99.90;;;;;;5042176;28;20609;-64
2021/03/26 02:57:58;;;;;;;57.77;29.67;;;6.00;99.90;;;;;;5031227;28;20608;-64
2021/03/26 03:00:31;;;;;;;56.17;30.10;;;6.00;99.90;;;;;;5041140;28;20303;-63
2021/03/26 03:03:01;;;;;;;58.37;30.77;;;6.00;99.90;;;;;;5054165;28;20246;-67
2021/03/26 03:05:43;;;;;;;54.00;30.90;;;5.80;99.90;;;;;;5045823;28;20190;-69
2021/03/26 03:08:29;;;;;;;64.30;30.50;;;5.80;99.90;;;;;;5036050;28;20180;-68
2021/03/26 03:11:10;;;;;;;59.10;30.23;;;5.70;99.90;;;;;;5048801;28;20230;-69
2021/03/26 03:13:45;;;;;;;66.17;33.17;;;5.60;99.90;;;;;;5056427;28;20171;-68
2021/03/26 03:16:18;;;;;;;77.53;34.50;;;5.50;99.90;;;;;;5049950;28;20186;-70
2021/03/26 03:18:58;;;;;;;62.90;32.33;;;5.50;99.90;;;;;;5054900;28;20183;-68
2021/03/26 03:21:34;;;;;;;65.13;32.27;;;5.50;99.90;;;;;;5038196;28;20210;-69
2021/03/26 03:24:21;;;;;;;64.13;32.57;;;5.50;99.90;;;;;;5049777;28;20550;-67
2021/03/26 03:27:19;;;;;;;68.33;33.07;;;5.40;99.90;;;;;;5056160;28;20197;-66
2021/03/26 03:30:04;;;;;;;72.27;32.97;;;5.30;99.90;;;;;;5036485;28;20195;-67
2021/03/26 03:32:35;;;;;;;66.33;33.47;;;5.30;99.90;;;;;;5036324;28;20199;-67
2021/03/26 03:35:11;;;;;;;68.97;33.40;;;5.20;99.90;;;;;;5056220;28;20214;-70
2021/03/26 03:37:58;;;;;;;77.63;34.70;;;5.20;99.90;;;;;;5056927;28;20193;-68
2021/03/26 03:40:35;;;;;;;77.10;34.57;;;5.20;99.90;;;;;;5039353;28;20199;-67
2021/03/26 03:43:12;;;;;;;74.60;35.67;;;5.20;99.90;;;;;;5043034;28;20202;-65
2021/03/26 03:45:46;;;;;;;82.70;37.43;;;5.10;99.90;;;;;;5059577;28;20170;-66
2021/03/26 03:48:48;;;;;;;83.03;36.40;;;5.10;99.90;;;;;;5054592;28;20186;-67
2021/03/26 03:51:26;;;;;;;77.60;34.43;;;5.10;99.90;;;;;;5045662;28;20675;-68
2021/03/26 03:53:54;;;;;;;75.20;38.87;;;5.10;99.90;;;;;;5059417;28;20205;-66
2021/03/26 03:56:32;;;;;;;96.47;58.03;;;5.20;99.90;;;;;;5047641;28;20175;-66
2021/03/26 03:59:04;;;;;;;79.30;36.00;;;5.10;99.90;;;;;;5038416;28;20656;-67
2021/03/26 04:01:39;;;;;;;75.80;33.73;;;5.10;99.90;;;;;;5051158;28;20214;-68
2021/03/26 04:04:23;;;;;;;82.00;36.50;;;5.00;99.90;;;;;;5058565;28;20284;-67
2021/03/26 04:07:02;;;;;;;76.47;34.53;;;5.00;99.90;;;;;;5044746;28;20172;-69
2021/03/26 04:09:33;;;;;;;78.97;33.03;;;5.00;99.90;;;;;;5038803;28;20580;-68
2021/03/26 04:12:04;;;;;;;70.77;32.27;;;4.90;99.90;;;;;;5052822;28;20671;-67
2021/03/26 04:14:46;;;;;;;70.70;31.80;;;4.90;99.90;;;;;;5058789;28;20182;-65
2021/03/26 04:17:17;;;;;;;83.27;33.90;;;4.90;99.90;;;;;;5041816;28;20183;-69
2021/03/26 04:19:47;;;;;;;80.60;34.37;;;4.80;99.90;;;;;;5036822;28;20195;-65
2021/03/26 04:22:21;;;;;;;87.93;36.80;;;4.80;99.90;;;;;;5053175;28;20568;-69
2021/03/26 04:24:55;;;;;;;97.47;36.70;;;4.80;99.90;;;;;;5057927;28;20166;-66
2021/03/26 04:27:37;;;;;;;96.03;39.10;;;4.80;99.90;;;;;;5040392;28;20179;-68
2021/03/26 04:30:14;;;;;;;91.50;39.53;;;4.90;99.90;;;;;;5037634;28;20642;-67
2021/03/26 04:32:40;;;;;;;88.33;38.80;;;5.00;99.90;;;;;;5056034;28;20186;-67
2021/03/26 04:35:08;;;;;;;88.50;39.97;;;5.20;99.90;;;;;;5058409;28;20175;-67
2021/03/26 04:37:44;;;;;;;100.23;38.57;;;5.20;99.90;;;;;;5041160;28;20180;-68
2021/03/26 04:40:22;;;;;;;97.23;40.37;;;5.30;99.90;;;;;;5037298;28;20191;-67
2021/03/26 04:42:47;;;;;;;96.67;39.97;;;5.40;99.90;;;;;;5053934;28;20289;-63
2021/03/26 04:45:47;;;;;;;97.87;40.83;;;5.40;99.90;;;;;;5038178;28;20263;-63
2021/03/26 04:48:31;;;;;;;83.77;38.10;;;5.50;99.90;;;;;;5036375;28;20171;-63
2021/03/26 04:51:13;;;;;;;85.53;38.77;;;5.50;99.90;;;;;;5052733;28;20190;-63
2021/03/26 04:53:45;;;;;;;87.87;39.10;;;5.50;99.90;;;;;;5045651;28;20183;-63
2021/03/26 04:56:21;;;;;;;84.40;37.47;;;5.60;99.90;;;;;;5050777;28;20236;-63
2021/03/26 04:58:52;;;;;;;92.33;36.20;;;5.60;99.90;;;;;;5044870;28;20183;-63
2021/03/26 05:01:19;;;;;;;94.93;40.73;;;5.60;99.90;;;;;;5032590;28;20215;-63
2021/03/26 05:04:06;;;;;;;84.63;39.27;;;5.50;99.90;;;;;;5039410;28;20201;-63
2021/03/26 05:06:37;;;;;;;83.37;37.27;;;5.50;99.90;;;;;;5052829;28;20167;-63
2021/03/26 05:09:24;;;;;;;80.03;37.47;;;5.50;99.90;;;;;;5043808;28;20535;-63
2021/03/26 05:11:54;;;;;;;83.97;36.53;;;5.50;99.90;;;;;;5034108;28;20511;-63
2021/03/26 05:14:34;;;;;;;94.03;36.97;;;5.40;99.90;;;;;;5052662;28;20178;-63
2021/03/26 05:17:18;;;;;;;80.67;37.47;;;5.40;99.90;;;;;;5049499;28;20175;-65
2021/03/26 05:20:13;;;;;;;85.57;36.87;;;5.40;99.90;;;;;;5032380;28;20237;-62
2021/03/26 05:22:54;;;;;;;93.03;35.83;;;5.30;99.90;;;;;;5034084;28;20656;-63
2021/03/26 05:25:29;;;;;;;83.03;35.20;;;5.30;99.90;;;;;;5052533;28;20218;-63
2021/03/26 05:27:57;;;;;;;69.87;33.97;;;5.20;99.90;;;;;;5043087;28;20179;-63
2021/03/26 05:30:28;;;;;;;73.93;34.70;;;5.10;99.90;;;;;;5032047;28;20275;-63
2021/03/26 05:33:03;;;;;;;74.80;34.00;;;5.00;99.90;;;;;;5040132;28;20540;-63
2021/03/26 05:35:38;;;;;;;82.00;35.13;;;5.00;99.90;;;;;;5052451;28;20720;-63
2021/03/26 05:38:11;;;;;;;80.43;37.97;;;5.00;99.90;;;;;;5043301;28;20213;-63
2021/03/26 05:40:46;;;;;;;76.40;34.03;;;5.00;99.90;;;;;;5034277;28;20192;-63
2021/03/26 05:43:34;;;;;;;77.43;35.10;;;5.10;99.90;;;;;;5032218;28;20210;-63
2021/03/26 05:46:37;;;;;;;72.23;34.87;;;5.20;99.90;;;;;;5041461;28;20541;-63
2021/03/26 05:49:18;;;;;;;86.80;34.70;;;5.20;99.90;;;;;;5050615;28;20177;-63
2021/03/26 05:52:04;;;;;;;72.80;34.27;;;5.30;99.90;;;;;;5036541;28;20167;-63
2021/03/26 05:54:48;;;;;;;77.13;35.80;;;5.30;99.90;;;;;;5032063;28;20310;-63
2021/03/26 05:57:42;;;;;;;82.67;35.40;;;5.50;99.90;;;;;;5050159;28;20636;-62
2021/03/26 06:00:51;;;;;;;74.80;35.57;;;5.50;99.90;;;;;;5050433;28;20198;-63
2021/03/26 06:03:37;;;;;;;86.77;37.97;;;5.60;99.90;;;;;;5026180;28;20227;-63
2021/03/26 06:06:38;;;;;;;95.63;39.07;;;5.70;99.90;;;;;;5038865;28;20170;-63
2021/03/26 06:09:12;;;;;;;81.70;37.27;;;5.80;99.90;;;;;;5041998;28;20174;-62
2021/03/26 06:12:15;;;;;;;70.20;34.13;;;5.80;99.90;;;;;;5031527;28;20200;-63
2021/03/26 06:15:17;;;;;;;70.03;34.53;;;5.90;99.90;;;;;;5045167;28;20173;-63
2021/03/26 06:18:13;;;;;;;73.17;35.47;;;6.00;99.90;;;;;;5051628;28;20527;-63
2021/03/26 06:21:00;;;;;;;76.57;37.20;;;6.00;99.90;;;;;;5011646;28;20200;-63
2021/03/26 06:23:59;;;;;;;67.00;33.70;;;6.10;99.90;;;;;;5016437;28;20286;-63
2021/03/26 06:26:47;;;;;;;68.93;34.53;;;6.20;99.90;;;;;;5051666;28;20183;-62
2021/03/26 06:29:17;;;;;;;74.27;38.83;;;6.30;99.90;;;;;;5046907;28;20176;-63
2021/03/26 06:32:22;;;;;;;74.83;35.97;;;6.40;99.90;;;;;;5031211;28;20188;-63
2021/03/26 06:35:12;;;;;;;67.70;35.47;;;6.50;99.90;;;;;;5032510;28;20648;-63
2021/03/26 06:37:59;;;;;;;70.80;34.47;;;6.60;99.90;;;;;;5031485;28;20179;-63
2021/03/26 06:40:45;;;;;;;59.17;33.20;;;6.80;99.90;;;;;;5047269;28;20860;-63
2021/03/26 06:43:23;;;;;;;60.40;33.17;;;6.90;99.90;;;;;;5051306;28;20203;-63
2021/03/26 06:46:46;;;;;;;59.13;31.50;;;6.90;99.90;;;;;;5031890;28;20707;-63
2021/03/26 06:49:48;;;;;;;63.80;31.87;;;7.00;99.90;;;;;;4952555;28;20190;-63
2021/03/26 06:52:38;;;;;;;51.17;30.17;;;7.30;99.90;;;;;;5041571;28;20675;-63
2021/03/26 06:55:31;;;;;;;50.50;30.97;;;7.60;99.90;;;;;;5047573;28;20186;-64
2021/03/26 06:58:18;;;;;;;48.50;26.60;;;8.00;99.90;;;;;;5051066;28;20642;-64
2021/03/26 07:00:59;;;;;;;41.00;26.87;;;8.40;99.90;;;;;;5011336;28;20208;-63
2021/03/26 07:03:49;;;;;;;38.63;24.43;;;8.80;99.90;;;;;;5035828;28;20202;-64
2021/03/26 07:06:48;;;;;;;39.37;25.37;;;9.20;99.90;;;;;;5035232;28;20182;-64
2021/03/26 07:09:32;;;;;;;38.10;23.70;;;9.50;99.90;;;;;;5011431;28;20172;-63
2021/03/26 07:12:33;;;;;;;38.43;22.97;;;9.90;99.90;;;;;;5024680;28;20187;-63
2021/03/26 07:15:02;;;;;;;32.03;22.33;;;10.10;99.90;;;;;;5022400;28;20188;-63
2021/03/26 07:17:33;;;;;;;33.47;23.70;;;10.40;99.90;;;;;;5034951;28;20233;-64
2021/03/26 07:20:24;;;;;;;34.47;23.07;;;10.60;99.90;;;;;;5034791;28;20676;-64
2021/03/26 07:23:08;;;;;;;31.23;21.93;;;10.90;99.90;;;;;;5034694;28;20202;-64
2021/03/26 07:26:04;;;;;;;31.50;23.03;;;11.10;99.90;;;;;;5039538;28;20166;-64
2021/03/26 07:28:39;;;;;;;32.77;22.57;;;11.30;99.90;;;;;;5054470;28;20178;-63
2021/03/26 07:31:26;;;;;;;31.70;20.80;;;11.40;99.90;;;;;;5044844;28;20668;-64
2021/03/26 07:34:10;;;;;;;30.03;21.23;;;11.50;99.90;;;;;;5034397;28;20175;-64
2021/03/26 07:36:50;;;;;;;27.93;20.63;;;11.60;99.90;;;;;;5046689;28;20183;-64
2021/03/26 07:39:19;;;;;;;27.40;20.57;;;11.90;99.90;;;;;;5054416;28;20182;-64
2021/03/26 07:42:17;;;;;;;26.40;18.17;;;12.10;99.90;;;;;;5041235;28;20188;-63
2021/03/26 07:45:27;;;;;;;24.80;19.37;;;12.30;99.90;;;;;;5033985;28;20214;-63
2021/03/26 07:48:34;;;;;;;26.40;18.37;;;12.60;99.90;;;;;;5014280;28;20176;-63
2021/03/26 07:51:18;;;;;;;23.90;16.87;;;12.90;99.90;;;;;;5024789;28;20190;-64
2021/03/26 07:54:32;;;;;;;22.50;16.57;;;13.20;99.90;;;;;;5052872;28;20192;-64
2021/03/26 07:57:31;;;;;;;23.80;17.47;;;13.30;99.90;;;;;;5042792;28;20215;-64
2021/03/26 08:00:30;;;;;;;24.60;16.67;;;13.50;99.90;;;;;;5013248;28;20222;-63
2021/03/26 08:03:25;;;;;;;25.20;17.67;;;13.50;99.90;;;;;;5013971;28;20210;-64
2021/03/26 08:06:08;;;;;;;24.73;17.87;;;13.50;99.90;;;;;;5019023;28;20179;-64
2021/03/26 08:09:04;;;;;;;30.53;19.37;;;13.70;99.90;;;;;;5053984;28;20182;-63
2021/03/26 08:11:52;;;;;;;22.03;16.67;;;14.00;99.90;;;;;;5051250;28;20191;-64
2021/03/26 08:14:36;;;;;;;22.40;17.00;;;14.20;99.90;;;;;;5050943;28;20607;-64
2021/03/26 08:17:32;;;;;;;21.60;15.37;;;14.30;99.90;;;;;;5053756;28;20167;-63
2021/03/26 08:20:08;;;;;;;22.27;15.93;;;14.50;99.90;;;;;;5053187;28;20226;-63
2021/03/26 08:22:52;;;;;;;26.07;18.20;;;14.80;99.90;;;;;;5053376;28;20683;-63
2021/03/26 08:25:36;;;;;;;21.73;16.00;;;14.90;99.90;;;;;;5053627;28;20163;-64
2021/03/26 08:28:10;;;;;;;22.37;16.03;;;15.00;99.90;;;;;;5053681;28;20268;-63
2021/03/26 08:30:54;;;;;;;20.77;14.60;;;15.20;99.90;;;;;;5054033;28;20570;-64
2021/03/26 08:33:28;;;;;;;19.50;14.57;;;15.20;99.90;;;;;;5053493;28;20258;-64
2021/03/26 08:36:19;;;;;;;20.93;16.17;;;15.20;99.90;;;;;;5053261;28;20209;-64
2021/03/26 08:39:05;;;;;;;20.47;15.80;;;15.10;99.90;;;;;;5053346;28;20201;-64
2021/03/26 08:41:38;;;;;;;21.83;15.47;;;15.40;99.90;;;;;;5053025;28;20560;-64
2021/03/26 08:44:05;;;;;;;18.00;13.00;;;15.50;99.90;;;;;;5053077;28;20241;-64
2021/03/26 08:46:36;;;;;;;19.33;13.83;;;15.60;99.90;;;;;;5053091;28;20286;-63
2021/03/26 08:49:09;;;;;;;19.43;13.63;;;15.80;99.90;;;;;;5053043;28;20233;-64
2021/03/26 08:52:12;;;;;;;18.67;13.60;;;16.20;99.90;;;;;;5052773;28;20202;-64
2021/03/26 08:55:03;;;;;;;17.07;13.17;;;16.50;99.90;;;;;;5053051;28;20198;-64
2021/03/26 08:57:43;;;;;;;17.67;13.97;;;16.40;99.90;;;;;;5053040;28;20532;-64
2021/03/26 09:00:15;;;;;;;17.73;13.97;;;16.50;99.90;;;;;;5052914;28;20206;-64
2021/03/26 09:03:07;;;;;;;19.50;14.27;;;16.60;99.90;;;;;;5053027;28;20584;-64
2021/03/26 09:05:43;;;;;;;16.60;13.10;;;16.80;99.90;;;;;;5049348;28;20167;-64
2021/03/26 09:08:35;;;;;;;17.70;12.67;;;16.90;99.90;;;;;;5020680;28;20590;-63
2021/03/26 09:11:27;;;;;;;17.13;12.43;;;16.70;99.90;;;;;;5012422;28;20271;-64
2021/03/26 09:14:12;;;;;;;18.50;12.97;;;16.60;99.90;;;;;;5012927;28;20172;-64
2021/03/26 09:16:50;;;;;;;16.37;12.70;;;16.80;99.90;;;;;;5013128;28;20176;-64
2021/03/26 09:19:21;;;;;;;16.50;11.90;;;17.10;99.90;;;;;;5012817;28;20174;-63
2021/03/26 09:22:23;;;;;;;16.17;12.20;;;17.50;99.90;;;;;;5012475;28;20712;-64
2021/03/26 09:25:25;;;;;;;14.23;11.33;;;17.90;99.90;;;;;;5012667;28;20179;-64
2021/03/26 09:28:04;;;;;;;13.53;10.07;;;18.10;99.90;;;;;;5012618;28;20172;-64
2021/03/26 09:30:38;;;;;;;16.50;12.10;;;17.70;99.90;;;;;;5012205;28;20224;-64
2021/03/26 09:33:06;;;;;;;14.93;9.27;;;17.90;99.90;;;;;;5012440;28;20230;-64
2021/03/26 09:35:38;;;;;;;13.80;9.80;;;18.10;99.90;;;;;;5012004;28;20172;-64
2021/03/26 09:38:10;;;;;;;14.33;10.40;;;17.80;99.90;;;;;;5012446;28;20196;-63
2021/03/26 09:40:59;;;;;;;12.77;9.23;;;17.70;99.90;;;;;;5012038;28;20192;-64
2021/03/26 09:43:30;;;;;;;12.93;9.93;;;18.00;99.90;;;;;;5012297;28;20210;-64
2021/03/26 09:46:24;;;;;;;13.85;9.82;;;18.30;99.90;;;;;;5012643;28;20714;-65
2021/03/26 09:49:01;;;;;;;15.00;9.40;;;18.70;99.90;;;;;;5010994;28;20255;-64
2021/03/26 09:51:53;;;;;;;15.23;10.15;;;18.90;99.90;;;;;;5012076;28;20191;-64
2021/03/26 09:54:25;;;;;;;12.07;9.73;;;19.10;99.90;;;;;;5012261;28;20176;-64
2021/03/26 09:56:59;;;;;;;11.80;8.37;;;19.10;99.90;;;;;;5041466;28;20257;-64
2021/03/26 09:59:33;;;;;;;14.25;8.57;;;19.30;99.90;;;;;;5022236;28;20187;-64
2021/03/26 10:02:11;;;;;;;11.93;8.73;;;19.50;99.90;;;;;;5031302;28;20210;-64
2021/03/26 10:04:59;;;;;;;11.73;8.93;;;19.80;99.90;;;;;;5031712;28;20170;-64
2021/03/26 10:07:49;;;;;;;10.52;7.30;;;20.40;99.90;;;;;;5031750;28;20187;-64
2021/03/26 10:13:03;;;;;;;11.13;6.95;;;19.80;99.90;;;;;;5051470;28;20179;-64
2021/03/26 10:15:31;;;;;;;12.75;7.30;;;19.90;99.90;;;;;;5044944;28;20548;-63
2021/03/26 10:18:22;;;;;;;9.77;6.50;;;20.30;99.90;;;;;;5031562;28;20175;-63
2021/03/26 10:20:59;;;;;;;10.30;6.90;;;20.30;99.90;;;;;;5040334;28;20584;-64
2021/03/26 10:23:35;;;;;;;9.57;7.28;;;20.50;99.90;;;;;;5051359;28;20280;-63
2021/03/26 10:26:24;;;;;;;9.00;6.43;;;20.40;99.90;;;;;;5039739;28;20185;-64
2021/03/26 10:28:59;;;;;;;9.35;6.43;;;20.20;99.90;;;;;;5031424;28;20171;-64
2021/03/26 10:31:35;;;;;;;10.88;7.03;;;19.70;99.90;;;;;;5044903;28;20577;-65
2021/03/26 10:34:05;;;;;;;10.38;6.40;;;19.80;99.90;;;;;;5051480;28;20178;-68
2021/03/26 10:36:57;;;;;;;8.95;6.43;;;20.20;99.90;;;;;;5040362;28;20186;-64
2021/03/26 10:39:55;;;;;;;9.70;6.80;;;20.30;99.90;;;;;;5031395;28;20233;-64
2021/03/26 10:42:49;;;;;;;7.80;5.22;;;20.70;99.90;;;;;;4995555;28;20302;-64
2021/03/26 10:45:42;;;;;;;10.68;6.03;;;20.20;99.90;;;;;;5011716;28;20172;-64
2021/03/26 10:48:26;;;;;;;9.45;5.60;;;20.50;99.90;;;;;;5028151;28;20187;-65
2021/03/26 10:51:15;;;;;;;9.10;5.68;;;20.50;99.90;;;;;;5035078;28;20191;-63
2021/03/26 10:53:48;;;;;;;7.43;5.60;;;20.70;99.90;;;;;;5047025;28;20185;-64
2021/03/26 10:56:53;;;;;;;10.30;6.32;;;20.60;99.90;;;;;;5051874;28;20179;-64
2021/03/26 10:59:38;;;;;;;10.60;6.27;;;20.00;99.90;;;;;;5035070;28;20179;-64
2021/03/26 11:02:24;;;;;;;7.77;6.10;;;19.50;99.90;;;;;;5044190;28;20189;-64
2021/03/26 11:05:14;;;;;;;10.33;5.00;;;19.60;99.90;;;;;;5033692;28;20194;-64
2021/03/26 11:08:01;;;;;;;6.13;4.73;;;19.40;99.90;;;;;;5040762;28;20190;-63
2021/03/26 11:10:31;;;;;;;7.17;4.80;;;18.90;99.90;;;;;;5034596;28;20184;-64
2021/03/26 11:13:08;;;;;;;10.50;4.20;;;18.90;99.90;;;;;;5052049;28;20174;-64
2021/03/26 11:15:38;;;;;;;10.67;4.57;;;18.80;99.90;;;;;;5055029;28;20258;-64
2021/03/26 11:18:21;;;;;;;5.43;4.73;;;19.20;99.90;;;;;;5036937;28;20179;-64
2021/03/26 11:21:04;;;;;;;5.90;4.43;;;19.20;99.90;;;;;;5034446;28;20187;-64
2021/03/26 11:23:34;;;;;;;7.50;4.67;;;18.90;99.90;;;;;;5014001;28;20245;-64
2021/03/26 11:26:06;;;;;;;6.37;5.13;;;18.00;99.90;;;;;;5015132;28;20199;-64
2021/03/26 11:28:43;;;;;;;6.70;4.77;;;17.70;99.90;;;;;;5015451;28;20235;-64
2021/03/26 11:31:24;;;;;;;5.67;3.80;;;17.90;99.90;;;;;;5015250;28;20593;-64
2021/03/26 11:34:08;;;;;;;7.03;3.87;;;18.40;99.90;;;;;;5054513;28;20204;-64
2021/03/26 11:36:41;;;;;;;5.63;4.20;;;18.40;99.90;;;;;;5050940;28;20256;-65
2021/03/26 11:39:12;;;;;;;4.43;3.97;;;18.80;99.90;;;;;;5034992;28;20286;-64
2021/03/26 11:42:22;;;;;;;5.03;4.13;;;19.30;99.90;;;;;;5054228;28;20201;-64
2021/03/26 11:45:16;;;;;;;7.57;4.17;;;19.90;99.90;;;;;;5034870;28;20716;-64
2021/03/26 11:47:44;;;;;;;5.40;4.40;;;19.90;99.90;;;;;;5033796;28;20657;-64
2021/03/26 11:50:26;;;;;;;5.70;4.10;;;19.70;99.90;;;;;;5041995;28;20233;-64
2021/03/26 11:53:13;;;;;;;7.23;4.77;;;20.10;99.90;;;;;;5054007;28;20228;-64
2021/03/26 11:55:42;;;;;;;8.00;4.03;;;20.40;99.90;;;;;;5042362;28;20180;-65
2021/03/26 11:58:17;;;;;;;8.77;6.35;;;20.80;99.90;;;;;;5033307;28;20202;-64
2021/03/26 12:00:53;;;;;;;9.60;4.75;;;21.60;99.90;;;;;;5045066;28;20210;-65
2021/03/26 12:03:26;;;;;;;7.88;5.40;;;21.40;99.90;;;;;;5053982;28;20205;-64
2021/03/26 12:06:23;;;;;;;8.18;5.38;;;21.00;99.90;;;;;;5041535;28;20271;-64
2021/03/26 12:08:58;;;;;;;8.48;5.95;;;20.40;99.90;;;;;;5023826;28;20545;-64
2021/03/26 12:11:52;;;;;;;7.78;5.75;;;20.00;99.90;;;;;;5033488;28;20604;-64
2021/03/26 12:14:33;;;;;;;9.07;5.85;;;20.20;99.90;;;;;;5003599;28;20536;-63
2021/03/26 12:17:04;;;;;;;10.75;4.63;;;20.50;99.90;;;;;;5014004;28;20200;-64
2021/03/26 12:19:35;;;;;;;7.80;4.40;;;20.70;99.90;;;;;;5037797;28;20173;-65
2021/03/26 12:22:22;;;;;;;8.70;4.60;;;20.70;99.90;;;;;;5035477;28;20195;-64
2021/03/26 12:25:01;;;;;;;7.93;4.72;;;21.30;99.90;;;;;;5047265;28;20672;-64
2021/03/26 12:27:33;;;;;;;7.57;4.53;;;21.60;99.90;;;;;;5053683;28;20648;-65
2021/03/26 12:30:01;;;;;;;6.53;4.38;;;21.40;99.90;;;;;;5037940;28;20271;-63
2021/03/26 12:33:00;;;;;;;5.55;3.90;;;20.90;99.90;;;;;;5033353;28;20176;-64
2021/03/26 12:35:34;;;;;;;6.43;3.40;;;20.20;99.90;;;;;;5006191;28;20227;-64
2021/03/26 12:38:29;;;;;;;6.27;4.60;;;19.80;99.90;;;;;;5013479;28;20176;-64
2021/03/26 12:40:55;;;;;;;6.27;3.50;;;19.50;99.90;;;;;;5013106;28;20206;-64
2021/03/26 12:43:29;;;;;;;6.35;3.13;;;19.90;99.90;;;;;;5013656;28;20617;-64
2021/03/26 12:46:11;;;;;;;6.23;3.30;;;20.40;99.90;;;;;;5013414;28;20179;-64
2021/03/26 12:48:42;;;;;;;3.93;3.00;;;20.30;99.90;;;;;;5016180;28;20184;-63
2021/03/26 12:51:29;;;;;;;3.67;3.13;;;19.90;99.90;;;;;;5052884;28;20256;-64
2021/03/26 12:54:55;;;;;;;4.50;4.07;;;19.50;99.90;;;;;;5049778;28;20270;-64
2021/03/26 12:57:31;;;;;;;4.93;3.50;;;18.70;99.90;;;;;;4991531;28;20220;-64
2021/03/26 13:00:15;;;;;;;7.93;4.03;;;18.60;99.90;;;;;;5037558;28;20260;-64
2021/03/26 13:03:16;;;;;;;4.77;3.50;;;18.60;99.90;;;;;;5041967;28;20710;-64
2021/03/26 13:05:46;;;;;;;5.33;4.10;;;18.60;99.90;;;;;;5032909;28;20190;-63
2021/03/26 13:08:14;;;;;;;6.90;3.67;;;18.70;99.90;;;;;;5034009;28;20551;-64
2021/03/26 13:11:08;;;;;;;5.87;3.77;;;19.00;99.90;;;;;;5031561;28;20200;-64
2021/03/26 13:13:52;;;;;;;7.00;3.73;;;19.10;99.90;;;;;;5049329;28;20248;-64
2021/03/26 13:16:23;;;;;;;5.63;3.65;;;19.90;99.90;;;;;;5052744;28;20175;-63
2021/03/26 13:19:00;;;;;;;6.38;3.72;;;20.60;99.90;;;;;;5034014;28;20523;-64
2021/03/26 13:21:40;;;;;;;3.63;3.28;;;21.00;99.90;;;;;;5032283;28;20206;-64
2021/03/26 13:24:30;;;;;;;4.10;2.95;;;21.10;99.90;;;;;;5052011;28;20214;-64
2021/03/26 13:27:20;;;;;;;4.70;3.40;;;21.20;99.90;;;;;;5050597;28;20171;-64
2021/03/26 13:30:07;;;;;;;5.77;3.40;;;20.70;99.90;;;;;;5033267;28;20677;-65
2021/03/26 13:32:59;;;;;;;6.85;3.25;;;20.10;99.90;;;;;;5052503;28;20233;-63
2021/03/26 13:35:31;;;;;;;4.55;2.80;;;20.10;99.90;;;;;;5040738;28;20245;-64
2021/03/26 13:38:35;;;;;;;3.63;2.53;;;20.70;99.90;;;;;;5035890;28;20225;-64
2021/03/26 13:41:06;;;;;;;5.35;3.42;;;20.70;99.90;;;;;;4993686;28;20247;-64
2021/03/26 13:43:41;;;;;;;2.90;2.10;;;20.20;99.90;;;;;;5012455;28;20265;-64